sensor_id;sensor_type;location;lat;lon;timestamp;P1;durP1;ratioP1;P2;durP2;ratioP2
82671;SDS011;72378;52.468;13.432;2023-12-28T00:00:47;7.07;;;2.75;;
82671;SDS011;72378;52.468;13.432;2023-12-28T00:03:13;8.95;;;3.08;;
82671;SDS011;72378;52.468;13.432;2023-12-28T00:05:40;9.95;;;2.60;;
82671;SDS011;72378;52.468;13.432;2023-12-28T00:08:07;7.10;;;2.50;;
82671;SDS011;72378;52.468;13.432;2023-12-28T00:10:33;9.10;;;2.95;;
82671;SDS011;72378;52.468;13.432;2023-12-28T00:13:01;27.70;;;8.55;;
82671;SDS011;72378;52.468;13.432;2023-12-28T00:15:28;36.10;;;11.70;;
82671;SDS011;72378;52.468;13.432;2023-12-28T00:17:54;16.27;;;5.93;;
82671;SDS011;72378;52.468;13.432;2023-12-28T00:20:20;9.95;;;3.33;;
82671;SDS011;72378;52.468;13.432;2023-12-28T00:22:46;6.78;;;2.95;;
82671;SDS011;72378;52.468;13.432;2023-12-28T00:25:14;8.40;;;3.75;;
82671;SDS011;72378;52.468;13.432;2023-12-28T00:27:40;10.07;;;3.72;;
82671;SDS011;72378;52.468;13.432;2023-12-28T00:30:06;7.63;;;3.10;;
82671;SDS011;72378;52.468;13.432;2023-12-28T00:32:32;12.88;;;4.55;;
82671;SDS011;72378;52.468;13.432;2023-12-28T00:34:59;11.48;;;4.63;;
82671;SDS011;72378;52.468;13.432;2023-12-28T00:37:25;13.65;;;6.40;;
82671;SDS011;72378;52.468;13.432;2023-12-28T00:39:51;13.98;;;4.97;;
82671;SDS011;72378;52.468;13.432;2023-12-28T00:42:18;9.65;;;3.30;;
82671;SDS011;72378;52.468;13.432;2023-12-28T00:44:45;11.35;;;3.42;;
82671;SDS011;72378;52.468;13.432;2023-12-28T00:47:11;7.75;;;2.58;;
82671;SDS011;72378;52.468;13.432;2023-12-28T00:49:37;10.75;;;3.83;;
82671;SDS011;72378;52.468;13.432;2023-12-28T00:52:04;11.85;;;4.80;;
82671;SDS011;72378;52.468;13.432;2023-12-28T00:54:30;10.07;;;3.35;;
82671;SDS011;72378;52.468;13.432;2023-12-28T00:56:56;8.40;;;3.22;;
82671;SDS011;72378;52.468;13.432;2023-12-28T00:59:24;8.18;;;2.53;;
82671;SDS011;72378;52.468;13.432;2023-12-28T01:01:50;7.55;;;2.85;;
82671;SDS011;72378;52.468;13.432;2023-12-28T01:04:16;15.55;;;6.78;;
82671;SDS011;72378;52.468;13.432;2023-12-28T01:06:42;15.40;;;5.60;;
82671;SDS011;72378;52.468;13.432;2023-12-28T01:09:09;15.38;;;6.20;;
82671;SDS011;72378;52.468;13.432;2023-12-28T01:11:35;16.88;;;5.53;;
82671;SDS011;72378;52.468;13.432;2023-12-28T01:14:01;11.18;;;4.70;;
82671;SDS011;72378;52.468;13.432;2023-12-28T01:16:29;10.55;;;4.13;;
82671;SDS011;72378;52.468;13.432;2023-12-28T01:18:55;34.60;;;13.05;;
82671;SDS011;72378;52.468;13.432;2023-12-28T01:21:21;30.45;;;10.55;;
82671;SDS011;72378;52.468;13.432;2023-12-28T01:23:49;16.85;;;6.55;;
82671;SDS011;72378;52.468;13.432;2023-12-28T01:26:15;14.68;;;4.57;;
82671;SDS011;72378;52.468;13.432;2023-12-28T01:28:42;9.30;;;3.60;;
82671;SDS011;72378;52.468;13.432;2023-12-28T01:31:08;11.25;;;4.05;;
82671;SDS011;72378;52.468;13.432;2023-12-28T01:33:36;52.50;;;19.98;;
82671;SDS011;72378;52.468;13.432;2023-12-28T01:36:02;34.40;;;13.68;;
82671;SDS011;72378;52.468;13.432;2023-12-28T01:38:28;13.40;;;5.75;;
82671;SDS011;72378;52.468;13.432;2023-12-28T01:40:54;12.20;;;4.53;;
82671;SDS011;72378;52.468;13.432;2023-12-28T01:43:20;8.30;;;2.70;;
82671;SDS011;72378;52.468;13.432;2023-12-28T01:45:47;7.25;;;2.20;;
82671;SDS011;72378;52.468;13.432;2023-12-28T01:48:13;6.68;;;2.33;;
82671;SDS011;72378;52.468;13.432;2023-12-28T01:50:40;6.30;;;2.10;;
82671;SDS011;72378;52.468;13.432;2023-12-28T01:53:07;5.90;;;2.10;;
82671;SDS011;72378;52.468;13.432;2023-12-28T01:55:33;6.00;;;2.20;;
82671;SDS011;72378;52.468;13.432;2023-12-28T01:58:00;6.32;;;2.22;;
82671;SDS011;72378;52.468;13.432;2023-12-28T02:00:26;6.18;;;2.33;;
82671;SDS011;72378;52.468;13.432;2023-12-28T02:02:52;6.28;;;1.85;;
82671;SDS011;72378;52.468;13.432;2023-12-28T02:05:19;5.93;;;1.75;;
82671;SDS011;72378;52.468;13.432;2023-12-28T02:07:46;5.90;;;1.92;;
82671;SDS011;72378;52.468;13.432;2023-12-28T02:10:13;9.65;;;2.10;;
82671;SDS011;72378;52.468;13.432;2023-12-28T02:12:39;6.13;;;2.15;;
82671;SDS011;72378;52.468;13.432;2023-12-28T02:15:05;5.32;;;1.88;;
82671;SDS011;72378;52.468;13.432;2023-12-28T02:17:33;5.97;;;1.80;;
82671;SDS011;72378;52.468;13.432;2023-12-28T02:20:00;4.60;;;1.52;;
82671;SDS011;72378;52.468;13.432;2023-12-28T02:22:30;4.30;;;1.35;;
82671;SDS011;72378;52.468;13.432;2023-12-28T02:25:02;4.82;;;1.40;;
82671;SDS011;72378;52.468;13.432;2023-12-28T02:27:29;6.95;;;2.55;;
82671;SDS011;72378;52.468;13.432;2023-12-28T02:29:55;5.05;;;1.83;;
82671;SDS011;72378;52.468;13.432;2023-12-28T02:32:22;7.05;;;2.60;;
82671;SDS011;72378;52.468;13.432;2023-12-28T02:34:50;5.43;;;1.80;;
82671;SDS011;72378;52.468;13.432;2023-12-28T02:37:21;5.47;;;1.95;;
82671;SDS011;72378;52.468;13.432;2023-12-28T02:39:48;6.40;;;1.50;;
82671;SDS011;72378;52.468;13.432;2023-12-28T02:44:42;6.22;;;2.13;;
82671;SDS011;72378;52.468;13.432;2023-12-28T02:47:08;5.28;;;1.80;;
82671;SDS011;72378;52.468;13.432;2023-12-28T02:49:34;4.50;;;1.38;;
82671;SDS011;72378;52.468;13.432;2023-12-28T02:52:01;6.78;;;1.70;;
82671;SDS011;72378;52.468;13.432;2023-12-28T02:54:27;5.63;;;2.00;;
82671;SDS011;72378;52.468;13.432;2023-12-28T02:56:53;4.57;;;1.50;;
82671;SDS011;72378;52.468;13.432;2023-12-28T02:59:19;4.28;;;1.40;;
82671;SDS011;72378;52.468;13.432;2023-12-28T03:01:47;4.75;;;1.27;;
82671;SDS011;72378;52.468;13.432;2023-12-28T03:04:13;2.85;;;1.20;;
82671;SDS011;72378;52.468;13.432;2023-12-28T03:09:06;4.70;;;1.30;;
82671;SDS011;72378;52.468;13.432;2023-12-28T03:11:32;5.25;;;1.73;;
82671;SDS011;72378;52.468;13.432;2023-12-28T03:13:58;4.57;;;1.60;;
82671;SDS011;72378;52.468;13.432;2023-12-28T03:16:26;4.53;;;1.40;;
82671;SDS011;72378;52.468;13.432;2023-12-28T03:18:53;4.38;;;1.20;;
82671;SDS011;72378;52.468;13.432;2023-12-28T03:21:20;3.90;;;1.38;;
82671;SDS011;72378;52.468;13.432;2023-12-28T03:23:46;4.53;;;1.48;;
82671;SDS011;72378;52.468;13.432;2023-12-28T03:26:12;4.57;;;1.40;;
82671;SDS011;72378;52.468;13.432;2023-12-28T03:28:39;5.93;;;2.10;;
82671;SDS011;72378;52.468;13.432;2023-12-28T03:31:05;3.53;;;1.10;;
82671;SDS011;72378;52.468;13.432;2023-12-28T03:33:32;5.35;;;1.80;;
82671;SDS011;72378;52.468;13.432;2023-12-28T03:35:59;3.75;;;1.25;;
82671;SDS011;72378;52.468;13.432;2023-12-28T03:38:25;10.93;;;5.15;;
82671;SDS011;72378;52.468;13.432;2023-12-28T03:40:51;3.95;;;1.50;;
82671;SDS011;72378;52.468;13.432;2023-12-28T03:43:18;6.22;;;2.70;;
82671;SDS011;72378;52.468;13.432;2023-12-28T03:45:44;4.35;;;1.30;;
82671;SDS011;72378;52.468;13.432;2023-12-28T03:48:10;4.30;;;1.60;;
82671;SDS011;72378;52.468;13.432;2023-12-28T03:50:36;4.65;;;1.50;;
82671;SDS011;72378;52.468;13.432;2023-12-28T03:53:04;4.03;;;1.50;;
82671;SDS011;72378;52.468;13.432;2023-12-28T03:55:30;6.28;;;2.47;;
82671;SDS011;72378;52.468;13.432;2023-12-28T03:57:56;3.88;;;1.27;;
82671;SDS011;72378;52.468;13.432;2023-12-28T04:00:23;3.50;;;1.10;;
82671;SDS011;72378;52.468;13.432;2023-12-28T04:02:49;4.10;;;1.48;;
82671;SDS011;72378;52.468;13.432;2023-12-28T04:05:15;5.38;;;1.45;;
82671;SDS011;72378;52.468;13.432;2023-12-28T04:07:41;4.95;;;1.48;;
82671;SDS011;72378;52.468;13.432;2023-12-28T04:12:36;4.97;;;1.50;;
82671;SDS011;72378;52.468;13.432;2023-12-28T04:15:02;4.10;;;1.10;;
82671;SDS011;72378;52.468;13.432;2023-12-28T04:17:28;3.78;;;1.30;;
82671;SDS011;72378;52.468;13.432;2023-12-28T04:19:54;3.80;;;1.60;;
82671;SDS011;72378;52.468;13.432;2023-12-28T04:22:21;4.47;;;1.38;;
82671;SDS011;72378;52.468;13.432;2023-12-28T04:24:47;6.32;;;1.50;;
82671;SDS011;72378;52.468;13.432;2023-12-28T04:27:13;4.80;;;1.40;;
82671;SDS011;72378;52.468;13.432;2023-12-28T04:29:40;4.82;;;1.35;;
82671;SDS011;72378;52.468;13.432;2023-12-28T04:32:07;4.72;;;1.60;;
82671;SDS011;72378;52.468;13.432;2023-12-28T04:34:33;5.00;;;1.63;;
82671;SDS011;72378;52.468;13.432;2023-12-28T04:36:59;3.35;;;1.20;;
82671;SDS011;72378;52.468;13.432;2023-12-28T04:39:25;5.60;;;1.77;;
82671;SDS011;72378;52.468;13.432;2023-12-28T04:41:51;5.43;;;1.50;;
82671;SDS011;72378;52.468;13.432;2023-12-28T04:44:18;5.50;;;1.52;;
82671;SDS011;72378;52.468;13.432;2023-12-28T04:46:46;6.03;;;1.85;;
82671;SDS011;72378;52.468;13.432;2023-12-28T04:49:12;5.43;;;1.80;;
82671;SDS011;72378;52.468;13.432;2023-12-28T04:51:41;5.18;;;1.85;;
82671;SDS011;72378;52.468;13.432;2023-12-28T04:54:08;7.00;;;2.40;;
82671;SDS011;72378;52.468;13.432;2023-12-28T04:56:34;4.60;;;1.20;;
82671;SDS011;72378;52.468;13.432;2023-12-28T04:59:00;5.63;;;1.73;;
82671;SDS011;72378;52.468;13.432;2023-12-28T05:01:26;4.85;;;1.42;;
82671;SDS011;72378;52.468;13.432;2023-12-28T05:03:57;3.95;;;1.38;;
82671;SDS011;72378;52.468;13.432;2023-12-28T05:06:23;5.57;;;1.58;;
82671;SDS011;72378;52.468;13.432;2023-12-28T05:08:49;2.85;;;1.05;;
82671;SDS011;72378;52.468;13.432;2023-12-28T05:11:16;4.78;;;1.20;;
82671;SDS011;72378;52.468;13.432;2023-12-28T05:13:42;4.32;;;1.50;;
82671;SDS011;72378;52.468;13.432;2023-12-28T05:16:08;4.60;;;1.58;;
82671;SDS011;72378;52.468;13.432;2023-12-28T05:18:35;3.72;;;1.30;;
82671;SDS011;72378;52.468;13.432;2023-12-28T05:21:02;3.55;;;1.10;;
82671;SDS011;72378;52.468;13.432;2023-12-28T05:23:28;3.17;;;1.10;;
82671;SDS011;72378;52.468;13.432;2023-12-28T05:25:54;5.57;;;1.80;;
82671;SDS011;72378;52.468;13.432;2023-12-28T05:28:21;5.20;;;1.35;;
82671;SDS011;72378;52.468;13.432;2023-12-28T05:30:47;4.57;;;1.75;;
82671;SDS011;72378;52.468;13.432;2023-12-28T05:33:13;4.13;;;1.40;;
82671;SDS011;72378;52.468;13.432;2023-12-28T05:35:39;4.22;;;1.30;;
82671;SDS011;72378;52.468;13.432;2023-12-28T05:38:07;2.75;;;1.15;;
82671;SDS011;72378;52.468;13.432;2023-12-28T05:40:33;3.80;;;1.30;;
82671;SDS011;72378;52.468;13.432;2023-12-28T05:42:59;4.03;;;1.10;;
82671;SDS011;72378;52.468;13.432;2023-12-28T05:45:25;5.43;;;1.40;;
82671;SDS011;72378;52.468;13.432;2023-12-28T05:47:52;6.00;;;1.85;;
82671;SDS011;72378;52.468;13.432;2023-12-28T05:50:18;4.60;;;1.40;;
82671;SDS011;72378;52.468;13.432;2023-12-28T05:52:44;3.83;;;1.20;;
82671;SDS011;72378;52.468;13.432;2023-12-28T05:55:12;3.80;;;1.40;;
82671;SDS011;72378;52.468;13.432;2023-12-28T05:57:39;8.07;;;1.50;;
82671;SDS011;72378;52.468;13.432;2023-12-28T06:00:06;4.05;;;1.20;;
82671;SDS011;72378;52.468;13.432;2023-12-28T06:02:34;3.53;;;1.20;;
82671;SDS011;72378;52.468;13.432;2023-12-28T06:05:00;5.57;;;1.20;;
82671;SDS011;72378;52.468;13.432;2023-12-28T06:07:27;3.13;;;1.00;;
82671;SDS011;72378;52.468;13.432;2023-12-28T06:09:53;4.53;;;1.58;;
82671;SDS011;72378;52.468;13.432;2023-12-28T06:12:21;5.18;;;1.70;;
82671;SDS011;72378;52.468;13.432;2023-12-28T06:14:47;6.15;;;2.60;;
82671;SDS011;72378;52.468;13.432;2023-12-28T06:17:13;4.38;;;1.40;;
82671;SDS011;72378;52.468;13.432;2023-12-28T06:19:40;4.18;;;1.40;;
82671;SDS011;72378;52.468;13.432;2023-12-28T06:22:06;4.32;;;1.23;;
82671;SDS011;72378;52.468;13.432;2023-12-28T06:24:32;5.15;;;1.40;;
82671;SDS011;72378;52.468;13.432;2023-12-28T06:26:59;4.80;;;1.27;;
82671;SDS011;72378;52.468;13.432;2023-12-28T06:29:36;3.72;;;1.30;;
82671;SDS011;72378;52.468;13.432;2023-12-28T06:32:02;4.30;;;1.10;;
82671;SDS011;72378;52.468;13.432;2023-12-28T06:34:29;4.88;;;1.65;;
82671;SDS011;72378;52.468;13.432;2023-12-28T06:36:55;5.70;;;1.42;;
82671;SDS011;72378;52.468;13.432;2023-12-28T06:39:21;3.83;;;1.45;;
82671;SDS011;72378;52.468;13.432;2023-12-28T06:41:47;4.40;;;1.30;;
82671;SDS011;72378;52.468;13.432;2023-12-28T06:44:14;4.85;;;1.50;;
82671;SDS011;72378;52.468;13.432;2023-12-28T06:46:41;6.07;;;1.40;;
82671;SDS011;72378;52.468;13.432;2023-12-28T06:49:09;4.43;;;1.35;;
82671;SDS011;72378;52.468;13.432;2023-12-28T06:51:35;3.85;;;1.33;;
82671;SDS011;72378;52.468;13.432;2023-12-28T06:54:02;3.72;;;1.30;;
82671;SDS011;72378;52.468;13.432;2023-12-28T06:56:28;4.55;;;1.40;;
82671;SDS011;72378;52.468;13.432;2023-12-28T06:58:54;3.92;;;1.35;;
82671;SDS011;72378;52.468;13.432;2023-12-28T07:01:20;4.55;;;1.58;;
82671;SDS011;72378;52.468;13.432;2023-12-28T07:03:48;3.05;;;1.20;;
82671;SDS011;72378;52.468;13.432;2023-12-28T07:06:14;4.28;;;1.20;;
82671;SDS011;72378;52.468;13.432;2023-12-28T07:08:40;5.20;;;1.30;;
82671;SDS011;72378;52.468;13.432;2023-12-28T07:11:09;3.80;;;1.40;;
82671;SDS011;72378;52.468;13.432;2023-12-28T07:13:35;4.40;;;1.27;;
82671;SDS011;72378;52.468;13.432;2023-12-28T07:16:01;5.78;;;1.77;;
82671;SDS011;72378;52.468;13.432;2023-12-28T07:18:28;3.80;;;1.40;;
82671;SDS011;72378;52.468;13.432;2023-12-28T07:20:55;4.93;;;1.77;;
82671;SDS011;72378;52.468;13.432;2023-12-28T07:23:21;4.97;;;1.55;;
82671;SDS011;72378;52.468;13.432;2023-12-28T07:25:47;5.88;;;1.52;;
82671;SDS011;72378;52.468;13.432;2023-12-28T07:28:14;6.78;;;2.47;;
82671;SDS011;72378;52.468;13.432;2023-12-28T07:30:40;3.90;;;1.33;;
82671;SDS011;72378;52.468;13.432;2023-12-28T07:35:33;4.63;;;1.38;;
82671;SDS011;72378;52.468;13.432;2023-12-28T07:38:00;4.07;;;1.20;;
82671;SDS011;72378;52.468;13.432;2023-12-28T07:40:27;5.55;;;1.75;;
82671;SDS011;72378;52.468;13.432;2023-12-28T07:42:53;4.10;;;1.40;;
82671;SDS011;72378;52.468;13.432;2023-12-28T07:45:19;4.03;;;1.30;;
82671;SDS011;72378;52.468;13.432;2023-12-28T07:47:48;4.75;;;1.73;;
82671;SDS011;72378;52.468;13.432;2023-12-28T07:50:14;4.70;;;1.45;;
82671;SDS011;72378;52.468;13.432;2023-12-28T07:52:41;4.32;;;1.50;;
82671;SDS011;72378;52.468;13.432;2023-12-28T07:57:35;3.67;;;1.20;;
82671;SDS011;72378;52.468;13.432;2023-12-28T08:00:02;5.10;;;1.38;;
82671;SDS011;72378;52.468;13.432;2023-12-28T08:02:28;4.72;;;1.33;;
82671;SDS011;72378;52.468;13.432;2023-12-28T08:04:55;4.70;;;1.52;;
82671;SDS011;72378;52.468;13.432;2023-12-28T08:07:21;5.10;;;1.42;;
82671;SDS011;72378;52.468;13.432;2023-12-28T08:09:47;5.53;;;1.60;;
82671;SDS011;72378;52.468;13.432;2023-12-28T08:12:13;4.72;;;1.27;;
82671;SDS011;72378;52.468;13.432;2023-12-28T08:14:41;4.43;;;1.42;;
82671;SDS011;72378;52.468;13.432;2023-12-28T08:17:07;4.18;;;1.40;;
82671;SDS011;72378;52.468;13.432;2023-12-28T08:19:33;5.10;;;1.52;;
82671;SDS011;72378;52.468;13.432;2023-12-28T08:21:59;4.35;;;1.60;;
82671;SDS011;72378;52.468;13.432;2023-12-28T08:24:25;4.25;;;1.45;;
82671;SDS011;72378;52.468;13.432;2023-12-28T08:26:52;5.18;;;1.48;;
82671;SDS011;72378;52.468;13.432;2023-12-28T08:29:18;4.43;;;1.70;;
82671;SDS011;72378;52.468;13.432;2023-12-28T08:31:45;5.65;;;1.85;;
82671;SDS011;72378;52.468;13.432;2023-12-28T08:34:12;4.90;;;1.63;;
82671;SDS011;72378;52.468;13.432;2023-12-28T08:36:38;4.63;;;1.52;;
82671;SDS011;72378;52.468;13.432;2023-12-28T08:39:04;3.45;;;1.30;;
82671;SDS011;72378;52.468;13.432;2023-12-28T08:41:30;6.00;;;1.73;;
82671;SDS011;72378;52.468;13.432;2023-12-28T08:43:57;4.80;;;1.80;;
82671;SDS011;72378;52.468;13.432;2023-12-28T08:46:23;4.75;;;1.40;;
82671;SDS011;72378;52.468;13.432;2023-12-28T08:48:52;5.22;;;1.35;;
82671;SDS011;72378;52.468;13.432;2023-12-28T08:51:18;4.32;;;1.67;;
82671;SDS011;72378;52.468;13.432;2023-12-28T08:53:45;5.15;;;1.60;;
82671;SDS011;72378;52.468;13.432;2023-12-28T08:56:12;5.70;;;1.85;;
82671;SDS011;72378;52.468;13.432;2023-12-28T08:58:39;5.32;;;1.58;;
82671;SDS011;72378;52.468;13.432;2023-12-28T09:01:05;5.93;;;1.90;;
82671;SDS011;72378;52.468;13.432;2023-12-28T09:03:31;8.30;;;2.58;;
82671;SDS011;72378;52.468;13.432;2023-12-28T09:05:58;6.25;;;1.88;;
82671;SDS011;72378;52.468;13.432;2023-12-28T09:08:25;4.03;;;1.50;;
82671;SDS011;72378;52.468;13.432;2023-12-28T09:10:51;7.50;;;2.30;;
82671;SDS011;72378;52.468;13.432;2023-12-28T09:13:23;6.07;;;1.80;;
82671;SDS011;72378;52.468;13.432;2023-12-28T09:15:49;4.45;;;1.95;;
82671;SDS011;72378;52.468;13.432;2023-12-28T09:18:18;7.05;;;2.00;;
82671;SDS011;72378;52.468;13.432;2023-12-28T09:20:45;4.72;;;1.58;;
82671;SDS011;72378;52.468;13.432;2023-12-28T09:23:13;5.82;;;1.80;;
82671;SDS011;72378;52.468;13.432;2023-12-28T09:25:39;6.50;;;2.13;;
82671;SDS011;72378;52.468;13.432;2023-12-28T09:28:06;5.22;;;1.67;;
82671;SDS011;72378;52.468;13.432;2023-12-28T09:30:32;8.15;;;2.05;;
82671;SDS011;72378;52.468;13.432;2023-12-28T09:32:58;6.28;;;1.95;;
82671;SDS011;72378;52.468;13.432;2023-12-28T09:35:24;6.13;;;1.85;;
82671;SDS011;72378;52.468;13.432;2023-12-28T09:37:51;6.47;;;1.88;;
82671;SDS011;72378;52.468;13.432;2023-12-28T09:40:18;5.55;;;1.80;;
82671;SDS011;72378;52.468;13.432;2023-12-28T09:42:48;5.57;;;1.90;;
82671;SDS011;72378;52.468;13.432;2023-12-28T09:45:15;7.60;;;2.20;;
82671;SDS011;72378;52.468;13.432;2023-12-28T09:47:41;5.50;;;1.80;;
82671;SDS011;72378;52.468;13.432;2023-12-28T09:50:09;5.50;;;1.70;;
82671;SDS011;72378;52.468;13.432;2023-12-28T09:55:01;6.22;;;1.73;;
82671;SDS011;72378;52.468;13.432;2023-12-28T09:57:30;5.53;;;1.90;;
82671;SDS011;72378;52.468;13.432;2023-12-28T09:59:57;5.00;;;2.00;;
82671;SDS011;72378;52.468;13.432;2023-12-28T10:02:23;5.05;;;1.67;;
82671;SDS011;72378;52.468;13.432;2023-12-28T10:04:49;5.10;;;1.75;;
82671;SDS011;72378;52.468;13.432;2023-12-28T10:07:16;7.20;;;1.98;;
82671;SDS011;72378;52.468;13.432;2023-12-28T10:09:42;5.55;;;1.90;;
82671;SDS011;72378;52.468;13.432;2023-12-28T10:12:08;7.60;;;1.70;;
82671;SDS011;72378;52.468;13.432;2023-12-28T10:14:36;5.97;;;1.80;;
82671;SDS011;72378;52.468;13.432;2023-12-28T10:17:03;5.45;;;1.92;;
82671;SDS011;72378;52.468;13.432;2023-12-28T10:19:29;6.10;;;1.83;;
82671;SDS011;72378;52.468;13.432;2023-12-28T10:21:55;5.20;;;1.80;;
82671;SDS011;72378;52.468;13.432;2023-12-28T10:24:22;6.63;;;2.10;;
82671;SDS011;72378;52.468;13.432;2023-12-28T10:26:48;6.80;;;1.85;;
82671;SDS011;72378;52.468;13.432;2023-12-28T10:29:15;6.18;;;2.00;;
82671;SDS011;72378;52.468;13.432;2023-12-28T10:31:43;5.75;;;1.88;;
82671;SDS011;72378;52.468;13.432;2023-12-28T10:34:10;6.57;;;1.73;;
82671;SDS011;72378;52.468;13.432;2023-12-28T10:36:36;6.68;;;1.90;;
82671;SDS011;72378;52.468;13.432;2023-12-28T10:39:04;4.20;;;1.80;;
82671;SDS011;72378;52.468;13.432;2023-12-28T10:41:31;6.07;;;1.83;;
82671;SDS011;72378;52.468;13.432;2023-12-28T10:44:01;5.90;;;1.70;;
82671;SDS011;72378;52.468;13.432;2023-12-28T10:46:30;6.50;;;1.80;;
82671;SDS011;72378;52.468;13.432;2023-12-28T10:48:59;6.20;;;1.98;;
82671;SDS011;72378;52.468;13.432;2023-12-28T10:51:26;6.78;;;2.15;;
82671;SDS011;72378;52.468;13.432;2023-12-28T10:53:54;5.30;;;1.95;;
82671;SDS011;72378;52.468;13.432;2023-12-28T10:56:25;6.70;;;2.53;;
82671;SDS011;72378;52.468;13.432;2023-12-28T10:58:58;5.38;;;1.83;;
82671;SDS011;72378;52.468;13.432;2023-12-28T11:01:26;5.70;;;1.85;;
82671;SDS011;72378;52.468;13.432;2023-12-28T11:03:57;5.60;;;1.95;;
82671;SDS011;72378;52.468;13.432;2023-12-28T11:06:26;5.70;;;1.83;;
82671;SDS011;72378;52.468;13.432;2023-12-28T11:08:53;5.82;;;2.10;;
82671;SDS011;72378;52.468;13.432;2023-12-28T11:11:19;5.03;;;2.03;;
82671;SDS011;72378;52.468;13.432;2023-12-28T11:13:47;5.10;;;2.03;;
82671;SDS011;72378;52.468;13.432;2023-12-28T11:16:15;6.10;;;2.03;;
82671;SDS011;72378;52.468;13.432;2023-12-28T11:18:42;5.60;;;1.92;;
82671;SDS011;72378;52.468;13.432;2023-12-28T11:21:08;5.80;;;1.98;;
82671;SDS011;72378;52.468;13.432;2023-12-28T11:23:36;4.93;;;2.15;;
82671;SDS011;72378;52.468;13.432;2023-12-28T11:26:02;5.20;;;1.85;;
82671;SDS011;72378;52.468;13.432;2023-12-28T11:28:28;5.00;;;1.98;;
82671;SDS011;72378;52.468;13.432;2023-12-28T11:30:55;5.78;;;1.90;;
82671;SDS011;72378;52.468;13.432;2023-12-28T11:33:22;5.78;;;1.95;;
82671;SDS011;72378;52.468;13.432;2023-12-28T11:35:48;5.28;;;1.77;;
82671;SDS011;72378;52.468;13.432;2023-12-28T11:38:15;6.10;;;1.90;;
82671;SDS011;72378;52.468;13.432;2023-12-28T11:40:44;5.45;;;1.92;;
82671;SDS011;72378;52.468;13.432;2023-12-28T11:43:15;5.93;;;1.98;;
82671;SDS011;72378;52.468;13.432;2023-12-28T11:45:46;4.93;;;1.73;;
82671;SDS011;72378;52.468;13.432;2023-12-28T11:48:14;5.50;;;2.00;;
82671;SDS011;72378;52.468;13.432;2023-12-28T11:50:47;4.82;;;1.80;;
82671;SDS011;72378;52.468;13.432;2023-12-28T11:53:14;6.57;;;2.22;;
82671;SDS011;72378;52.468;13.432;2023-12-28T11:55:40;5.45;;;1.95;;
82671;SDS011;72378;52.468;13.432;2023-12-28T11:58:08;5.22;;;1.80;;
82671;SDS011;72378;52.468;13.432;2023-12-28T12:00:34;6.07;;;2.42;;
82671;SDS011;72378;52.468;13.432;2023-12-28T12:03:01;5.50;;;2.00;;
82671;SDS011;72378;52.468;13.432;2023-12-28T12:05:28;6.30;;;2.08;;
82671;SDS011;72378;52.468;13.432;2023-12-28T12:07:54;6.95;;;2.08;;
82671;SDS011;72378;52.468;13.432;2023-12-28T12:10:22;4.72;;;2.00;;
82671;SDS011;72378;52.468;13.432;2023-12-28T12:12:50;7.28;;;1.90;;
82671;SDS011;72378;52.468;13.432;2023-12-28T12:15:18;7.65;;;3.10;;
82671;SDS011;72378;52.468;13.432;2023-12-28T12:17:44;5.65;;;1.73;;
82671;SDS011;72378;52.468;13.432;2023-12-28T12:20:10;5.30;;;1.67;;
82671;SDS011;72378;52.468;13.432;2023-12-28T12:22:37;6.38;;;1.80;;
82671;SDS011;72378;52.468;13.432;2023-12-28T12:25:04;7.45;;;2.10;;
82671;SDS011;72378;52.468;13.432;2023-12-28T12:27:31;5.28;;;1.77;;
82671;SDS011;72378;52.468;13.432;2023-12-28T12:29:57;5.18;;;2.00;;
82671;SDS011;72378;52.468;13.432;2023-12-28T12:32:25;7.38;;;2.58;;
82671;SDS011;72378;52.468;13.432;2023-12-28T12:34:51;4.15;;;1.70;;
82671;SDS011;72378;52.468;13.432;2023-12-28T12:37:17;6.07;;;2.20;;
82671;SDS011;72378;52.468;13.432;2023-12-28T12:39:43;5.35;;;1.60;;
82671;SDS011;72378;52.468;13.432;2023-12-28T12:42:12;4.40;;;1.60;;
82671;SDS011;72378;52.468;13.432;2023-12-28T12:44:38;5.75;;;2.20;;
82671;SDS011;72378;52.468;13.432;2023-12-28T12:47:04;5.75;;;1.77;;
82671;SDS011;72378;52.468;13.432;2023-12-28T12:49:32;6.57;;;1.90;;
82671;SDS011;72378;52.468;13.432;2023-12-28T12:51:58;7.28;;;2.22;;
82671;SDS011;72378;52.468;13.432;2023-12-28T12:54:24;6.47;;;2.65;;
82671;SDS011;72378;52.468;13.432;2023-12-28T12:56:52;7.43;;;1.80;;
82671;SDS011;72378;52.468;13.432;2023-12-28T12:59:18;4.75;;;1.63;;
82671;SDS011;72378;52.468;13.432;2023-12-28T13:01:45;6.15;;;2.53;;
82671;SDS011;72378;52.468;13.432;2023-12-28T13:04:13;5.50;;;1.67;;
82671;SDS011;72378;52.468;13.432;2023-12-28T13:06:42;5.70;;;1.73;;
82671;SDS011;72378;52.468;13.432;2023-12-28T13:09:08;5.88;;;2.22;;
82671;SDS011;72378;52.468;13.432;2023-12-28T13:11:36;5.80;;;1.90;;
82671;SDS011;72378;52.468;13.432;2023-12-28T13:14:02;6.20;;;1.73;;
82671;SDS011;72378;52.468;13.432;2023-12-28T13:16:29;6.57;;;1.40;;
82671;SDS011;72378;52.468;13.432;2023-12-28T13:18:55;5.15;;;1.92;;
82671;SDS011;72378;52.468;13.432;2023-12-28T13:21:22;6.80;;;1.63;;
82671;SDS011;72378;52.468;13.432;2023-12-28T13:23:50;6.18;;;1.95;;
82671;SDS011;72378;52.468;13.432;2023-12-28T13:26:16;5.38;;;1.90;;
82671;SDS011;72378;52.468;13.432;2023-12-28T13:28:42;5.32;;;2.00;;
82671;SDS011;72378;52.468;13.432;2023-12-28T13:31:08;4.00;;;1.60;;
82671;SDS011;72378;52.468;13.432;2023-12-28T13:33:35;5.00;;;1.50;;
82671;SDS011;72378;52.468;13.432;2023-12-28T13:36:01;7.35;;;2.13;;
82671;SDS011;72378;52.468;13.432;2023-12-28T13:38:27;5.07;;;1.95;;
82671;SDS011;72378;52.468;13.432;2023-12-28T13:40:55;5.20;;;1.55;;
82671;SDS011;72378;52.468;13.432;2023-12-28T13:43:21;4.65;;;1.60;;
82671;SDS011;72378;52.468;13.432;2023-12-28T13:45:47;7.20;;;1.80;;
82671;SDS011;72378;52.468;13.432;2023-12-28T13:48:14;6.43;;;1.95;;
82671;SDS011;72378;52.468;13.432;2023-12-28T13:50:40;5.28;;;1.63;;
82671;SDS011;72378;52.468;13.432;2023-12-28T13:53:06;5.20;;;1.63;;
82671;SDS011;72378;52.468;13.432;2023-12-28T13:55:33;6.07;;;1.75;;
82671;SDS011;72378;52.468;13.432;2023-12-28T13:58:01;7.00;;;2.42;;
82671;SDS011;72378;52.468;13.432;2023-12-28T14:00:28;5.90;;;1.52;;
82671;SDS011;72378;52.468;13.432;2023-12-28T14:02:54;5.10;;;1.48;;
82671;SDS011;72378;52.468;13.432;2023-12-28T14:05:20;5.63;;;1.80;;
82671;SDS011;72378;52.468;13.432;2023-12-28T14:07:48;4.53;;;1.70;;
82671;SDS011;72378;52.468;13.432;2023-12-28T14:10:14;5.28;;;1.67;;
82671;SDS011;72378;52.468;13.432;2023-12-28T14:12:40;7.25;;;2.00;;
82671;SDS011;72378;52.468;13.432;2023-12-28T14:15:08;5.32;;;1.88;;
82671;SDS011;72378;52.468;13.432;2023-12-28T14:17:35;8.77;;;3.35;;
82671;SDS011;72378;52.468;13.432;2023-12-28T14:20:01;4.78;;;1.50;;
82671;SDS011;72378;52.468;13.432;2023-12-28T14:22:28;5.20;;;1.70;;
82671;SDS011;72378;52.468;13.432;2023-12-28T14:24:54;4.72;;;1.75;;
82671;SDS011;72378;52.468;13.432;2023-12-28T14:27:21;5.10;;;1.50;;
82671;SDS011;72378;52.468;13.432;2023-12-28T14:29:48;8.30;;;1.95;;
82671;SDS011;72378;52.468;13.432;2023-12-28T14:32:17;8.70;;;3.28;;
82671;SDS011;72378;52.468;13.432;2023-12-28T14:34:43;4.75;;;1.70;;
82671;SDS011;72378;52.468;13.432;2023-12-28T14:37:10;4.55;;;1.45;;
82671;SDS011;72378;52.468;13.432;2023-12-28T14:39:36;6.53;;;2.00;;
82671;SDS011;72378;52.468;13.432;2023-12-28T14:42:03;3.95;;;1.45;;
82671;SDS011;72378;52.468;13.432;2023-12-28T14:44:29;8.05;;;3.38;;